createdAt,value
2019-02-14T00:01:10.342Z,9.20
2019-02-14T00:04:13.881Z,9.57
2019-02-14T00:07:17.433Z,9.10
2019-02-14T00:10:20.974Z,8.90
2019-02-14T00:13:24.817Z,8.40
2019-02-14T00:16:28.367Z,8.70
2019-02-14T00:19:32.147Z,8.43
2019-02-14T00:22:35.695Z,8.37
2019-02-14T00:25:39.246Z,8.50
2019-02-14T00:28:43.421Z,8.27
2019-02-14T00:31:46.965Z,8.07
2019-02-14T00:34:50.514Z,7.27
2019-02-14T00:37:54.061Z,7.33
2019-02-14T00:40:57.871Z,7.23
2019-02-14T00:44:01.408Z,7.23
2019-02-14T00:47:05.261Z,6.93
2019-02-14T00:50:08.881Z,7.33
2019-02-14T00:53:12.777Z,7.57
2019-02-14T00:56:16.329Z,6.83
2019-02-14T00:59:19.862Z,6.70
2019-02-14T01:02:23.966Z,7.07
2019-02-14T01:05:33.301Z,6.63
2019-02-14T01:08:33.105Z,6.53
2019-02-14T01:11:36.986Z,6.10
2019-02-14T01:14:40.794Z,6.03
2019-02-14T01:17:44.602Z,6.70
2019-02-14T01:20:48.147Z,6.50
2019-02-14T01:23:52.013Z,6.80
2019-02-14T01:26:56.428Z,6.33
2019-02-14T01:29:59.966Z,5.80
2019-02-14T01:33:03.526Z,6.30
2019-02-14T01:36:07.064Z,5.80
2019-02-14T01:39:10.860Z,5.70
2019-02-14T01:42:14.517Z,5.90
2019-02-14T01:45:18.061Z,6.00
2019-02-14T01:48:21.598Z,6.00
2019-02-14T01:51:25.139Z,5.80
2019-02-14T01:54:28.690Z,5.67
2019-02-14T01:57:32.316Z,5.57
2019-02-14T02:00:36.186Z,5.70
2019-02-14T02:03:40.055Z,6.03
2019-02-14T02:06:43.615Z,5.20
2019-02-14T02:09:47.250Z,5.23
2019-02-14T02:12:51.425Z,5.20
2019-02-14T02:15:54.982Z,5.47
2019-02-14T02:18:58.551Z,5.60
2019-02-14T02:22:02.115Z,5.90
2019-02-14T02:25:06.536Z,4.90
2019-02-14T02:28:10.127Z,5.00
2019-02-14T02:31:13.776Z,5.30
2019-02-14T02:34:17.584Z,5.50
2019-02-14T02:37:21.139Z,5.10
2019-02-14T02:40:25.297Z,4.67
2019-02-14T02:43:29.210Z,5.07
2019-02-14T02:46:33.227Z,4.90
2019-02-14T02:49:37.115Z,5.10
2019-02-14T02:52:40.844Z,4.60
2019-02-14T02:55:44.764Z,4.60
2019-02-14T02:58:48.871Z,4.57
2019-02-14T03:01:52.713Z,4.37
2019-02-14T03:04:56.590Z,5.13
2019-02-14T03:08:00.154Z,4.57
2019-02-14T03:11:03.730Z,4.60
2019-02-14T03:14:07.587Z,4.97
2019-02-14T03:17:11.145Z,4.57
2019-02-14T03:20:15.123Z,4.70
2019-02-14T03:23:18.964Z,4.67
2019-02-14T03:26:22.528Z,4.83
2019-02-14T03:29:26.096Z,4.87
2019-02-14T03:32:29.668Z,4.50
2019-02-14T03:35:33.240Z,4.37
2019-02-14T03:38:36.794Z,4.53
2019-02-14T03:41:40.362Z,4.37
2019-02-14T03:44:44.521Z,4.40
2019-02-14T03:47:48.415Z,4.70
2019-02-14T03:50:51.955Z,4.70
2019-02-14T03:53:56.293Z,4.40
2019-02-14T03:56:59.831Z,4.60
2019-02-14T04:00:05.056Z,4.30
2019-02-14T04:03:08.818Z,4.80
2019-02-14T04:06:12.353Z,4.60
2019-02-14T04:09:15.900Z,4.50
2019-02-14T04:12:19.670Z,4.80
2019-02-14T04:15:23.808Z,4.40
2019-02-14T04:18:27.602Z,4.40
2019-02-14T04:21:31.151Z,4.50
2019-02-14T04:24:35.032Z,4.13
2019-02-14T04:27:38.896Z,4.20
2019-02-14T04:30:42.713Z,4.73
2019-02-14T04:33:46.250Z,4.40
2019-02-14T04:36:50.118Z,4.93
2019-02-14T04:39:53.948Z,4.20
2019-02-14T04:42:57.773Z,4.60
2019-02-14T04:46:01.649Z,4.40
2019-02-14T04:49:05.435Z,4.30
2019-02-14T04:52:09.571Z,4.37
2019-02-14T04:55:13.479Z,4.17
2019-02-14T04:58:17.319Z,4.37
2019-02-14T05:01:21.145Z,4.23
2019-02-14T05:04:24.674Z,3.90
2019-02-14T05:07:28.214Z,4.03
2019-02-14T05:10:32.053Z,4.40
2019-02-14T05:13:35.868Z,3.57
2019-02-14T05:16:39.406Z,3.43
2019-02-14T05:19:42.930Z,3.83
2019-02-14T05:22:46.738Z,26.30
2019-02-14T05:25:50.544Z,39.13
2019-02-14T05:28:54.116Z,31.67
2019-02-14T05:31:57.657Z,29.90
2019-02-14T05:35:01.462Z,27.53
2019-02-14T05:38:04.998Z,25.83
2019-02-14T05:41:08.528Z,24.00
2019-02-14T05:44:12.377Z,23.03
2019-02-14T05:47:16.221Z,13.23
2019-02-14T05:50:20.337Z,14.03
2019-02-14T05:53:23.981Z,17.87
2019-02-14T05:56:27.751Z,35.80
2019-02-14T05:59:31.455Z,30.03
2019-02-14T06:02:34.993Z,29.10
2019-02-14T06:05:38.777Z,28.13
2019-02-14T06:08:42.653Z,25.63
2019-02-14T06:11:46.196Z,20.17
2019-02-14T06:14:50.013Z,16.97
2019-02-14T06:17:53.570Z,16.20
2019-02-14T06:20:57.108Z,15.43
2019-02-14T06:24:00.978Z,13.77
2019-02-14T06:27:04.517Z,12.93
2019-02-14T06:30:10.573Z,12.30
2019-02-14T06:33:14.376Z,11.53
2019-02-14T06:36:18.490Z,10.77
2019-02-14T06:39:22.305Z,9.77
2019-02-14T06:42:26.074Z,9.53
2019-02-14T06:45:29.622Z,9.13
2019-02-14T06:48:33.726Z,9.27
2019-02-14T06:51:37.265Z,10.10
2019-02-14T06:54:40.795Z,9.47
2019-02-14T06:57:44.336Z,8.53
2019-02-14T07:00:48.422Z,8.47
2019-02-14T07:03:52.230Z,7.73
2019-02-14T07:06:55.760Z,7.40
2019-02-14T07:09:59.355Z,7.47
2019-02-14T07:13:03.137Z,7.30
2019-02-14T07:16:06.683Z,7.17
2019-02-14T07:19:10.505Z,7.47
2019-02-14T07:22:14.040Z,6.93
2019-02-14T07:25:17.581Z,6.97
2019-02-14T07:28:21.137Z,7.40
2019-02-14T07:31:24.673Z,7.23
2019-02-14T07:34:28.460Z,7.00
2019-02-14T07:37:32.317Z,6.67
2019-02-14T07:40:35.854Z,6.13
2019-02-14T07:43:39.402Z,6.90
2019-02-14T07:46:42.929Z,6.17
2019-02-14T07:49:46.468Z,6.27
2019-02-14T07:52:49.994Z,6.23
2019-02-14T07:55:53.569Z,6.23
2019-02-14T07:58:57.447Z,5.93
2019-02-14T08:02:00.975Z,6.70
2019-02-14T08:05:04.885Z,5.97
2019-02-14T08:08:08.426Z,6.80
2019-02-14T08:11:12.296Z,6.10
2019-02-14T08:14:16.463Z,6.00
2019-02-14T08:17:20.263Z,5.40
2019-02-14T08:20:23.802Z,6.23
2019-02-14T08:23:27.328Z,5.80
2019-02-14T08:26:30.870Z,5.97
2019-02-14T08:29:35.029Z,5.63
2019-02-14T08:32:38.897Z,6.47
2019-02-14T08:35:42.747Z,5.60
2019-02-14T08:38:46.242Z,5.77
2019-02-14T08:41:50.065Z,5.03
2019-02-14T08:44:53.933Z,5.07
2019-02-14T08:47:57.469Z,5.33
2019-02-14T08:51:01.001Z,5.47
2019-02-14T08:54:04.847Z,6.00
2019-02-14T08:57:08.638Z,5.40
2019-02-14T09:00:12.889Z,4.97
2019-02-14T09:03:16.420Z,5.73
2019-02-14T09:06:20.525Z,5.73
2019-02-14T09:09:24.059Z,6.40
2019-02-14T09:12:27.595Z,5.10
2019-02-14T09:15:31.146Z,4.90
2019-02-14T09:18:34.692Z,5.00
2019-02-14T09:21:38.218Z,5.77
2019-02-14T09:24:41.755Z,5.80
2019-02-14T09:27:45.296Z,5.00
2019-02-14T09:30:48.816Z,4.80
2019-02-14T09:33:52.355Z,5.27
2019-02-14T09:36:56.163Z,4.47
2019-02-14T09:39:59.686Z,5.17
2019-02-14T09:43:03.231Z,5.43
2019-02-14T09:46:06.780Z,5.10
2019-02-14T09:49:10.306Z,5.33
2019-02-14T09:52:13.843Z,5.27
2019-02-14T09:55:17.652Z,5.77
2019-02-14T09:58:22.674Z,4.60
2019-02-14T10:01:26.406Z,5.40
2019-02-14T10:04:29.958Z,4.60
2019-02-14T10:07:33.671Z,4.90
2019-02-14T10:10:37.570Z,4.67
2019-02-14T10:13:41.177Z,5.27
2019-02-14T10:16:44.784Z,5.47
2019-02-14T10:19:48.237Z,4.40
2019-02-14T10:22:51.780Z,4.83
2019-02-14T10:25:55.313Z,4.30
2019-02-14T10:28:58.833Z,4.20
2019-02-14T10:32:02.690Z,4.30
2019-02-14T10:35:06.819Z,4.23
2019-02-14T10:38:10.354Z,4.90
2019-02-14T10:41:13.896Z,4.37
2019-02-14T10:44:17.423Z,3.83
2019-02-14T10:47:20.963Z,4.73
2019-02-14T10:50:24.779Z,4.57
2019-02-14T10:53:28.399Z,3.83
2019-02-14T10:56:32.331Z,4.07
2019-02-14T10:59:35.855Z,4.20
2019-02-14T11:02:39.752Z,3.83
2019-02-14T11:05:43.278Z,4.40
2019-02-14T11:08:47.357Z,4.13
2019-02-14T11:11:51.145Z,4.37
2019-02-14T11:14:54.978Z,4.00
2019-02-14T11:17:58.759Z,3.43
2019-02-14T11:21:02.599Z,4.00
2019-02-14T11:24:06.709Z,3.97
2019-02-14T11:27:09.260Z,4.10
2019-02-14T11:30:13.468Z,4.27
2019-02-14T11:33:17.726Z,3.80
2019-02-14T11:36:21.543Z,4.40
2019-02-14T11:39:25.318Z,3.40
2019-02-14T11:42:30.180Z,3.57
2019-02-14T11:45:34.833Z,3.80
2019-02-14T11:48:38.598Z,3.20
2019-02-14T11:51:42.130Z,3.50
2019-02-14T11:54:45.998Z,3.73
2019-02-14T11:57:49.537Z,3.23
2019-02-14T12:00:53.353Z,3.40
2019-02-14T12:03:57.221Z,3.07
2019-02-14T12:07:00.745Z,3.30
2019-02-14T12:10:13.255Z,3.10
2019-02-14T12:13:10.658Z,3.30
2019-02-14T12:16:14.184Z,3.13
2019-02-14T12:19:17.765Z,3.23
2019-02-14T12:22:21.287Z,3.20
2019-02-14T12:25:24.930Z,3.57
2019-02-14T12:28:28.465Z,3.13
2019-02-14T12:31:31.996Z,3.00
2019-02-14T12:34:35.543Z,3.13
2019-02-14T12:37:39.062Z,2.87
2019-02-14T12:40:42.860Z,3.00
2019-02-14T12:43:46.708Z,3.20
2019-02-14T12:46:50.237Z,3.40
2019-02-14T12:49:54.081Z,3.10
2019-02-14T12:52:57.608Z,3.13
2019-02-14T12:56:01.149Z,3.10
2019-02-14T12:59:04.684Z,2.80
2019-02-14T13:02:08.207Z,2.70
2019-02-14T13:05:11.977Z,3.23
2019-02-14T13:08:15.505Z,2.90
2019-02-14T13:11:19.283Z,2.50
2019-02-14T13:14:23.044Z,2.70
2019-02-14T13:17:26.830Z,2.50
2019-02-14T13:20:30.367Z,2.60
2019-02-14T13:23:33.899Z,2.63
2019-02-14T13:26:37.449Z,2.37
2019-02-14T13:29:41.075Z,2.93
2019-02-14T13:32:45.154Z,2.23
2019-02-14T13:35:48.704Z,2.50
2019-02-14T13:38:52.227Z,2.37
2019-02-14T13:41:56.070Z,2.20
2019-02-14T13:44:59.854Z,2.30
2019-02-14T13:48:03.385Z,2.07
2019-02-14T13:51:07.157Z,2.27
2019-02-14T13:54:10.689Z,2.17
2019-02-14T13:57:14.219Z,2.10
2019-02-14T14:00:20.086Z,2.20
2019-02-14T14:03:23.613Z,1.87
2019-02-14T14:06:27.155Z,1.93
2019-02-14T14:09:38.581Z,2.00
2019-02-14T14:12:36.519Z,1.93
2019-02-14T14:15:40.636Z,2.07
2019-02-14T14:18:44.159Z,2.20
2019-02-14T14:21:48.013Z,1.97
2019-02-14T14:24:51.543Z,2.30
2019-02-14T14:27:55.330Z,2.10
2019-02-14T14:30:59.211Z,1.83
2019-02-14T14:34:02.758Z,1.90
2019-02-14T14:37:06.290Z,1.83
2019-02-14T14:40:10.822Z,2.07
2019-02-14T14:43:24.409Z,1.93
2019-02-14T14:46:46.999Z,1.90
2019-02-14T14:49:50.860Z,2.00
2019-02-14T14:52:54.394Z,1.83
2019-02-14T14:55:58.213Z,1.80
2019-02-14T14:59:01.743Z,2.10
2019-02-14T15:02:05.274Z,2.07
2019-02-14T15:05:08.808Z,2.00
2019-02-14T15:08:12.333Z,1.73
2019-02-14T15:11:15.864Z,2.10
2019-02-14T15:14:19.758Z,1.90
2019-02-14T15:17:23.364Z,2.00
2019-02-14T15:20:26.895Z,1.80
2019-02-14T15:23:30.861Z,2.13
2019-02-14T15:26:34.666Z,1.60
2019-02-14T15:29:38.193Z,1.93
2019-02-14T15:32:42.036Z,2.00
2019-02-14T15:35:45.579Z,2.00
2019-02-14T15:38:49.110Z,1.83
2019-02-14T15:41:52.633Z,1.70
2019-02-14T15:44:56.172Z,1.87
2019-02-14T15:47:59.699Z,1.57
2019-02-14T15:51:03.233Z,2.10
2019-02-14T15:54:07.475Z,5.80
2019-02-14T15:57:11.835Z,5.60
2019-02-14T16:00:15.960Z,6.40
2019-02-14T16:03:20.166Z,14.17
2019-02-14T16:06:25.619Z,32.53
2019-02-14T16:09:29.258Z,113.57
2019-02-14T16:12:33.198Z,76.17
2019-02-14T16:15:36.771Z,86.07
2019-02-14T16:18:40.854Z,79.30
2019-02-14T16:21:44.667Z,75.70
2019-02-14T16:24:48.206Z,74.23
2019-02-14T16:27:52.036Z,67.50
2019-02-14T16:30:56.862Z,68.77
2019-02-14T16:34:00.833Z,64.70
2019-02-14T16:37:05.365Z,62.67
2019-02-14T16:40:09.276Z,60.27
2019-02-14T16:43:13.075Z,58.87
2019-02-14T16:46:16.619Z,54.93
2019-02-14T16:49:20.785Z,55.20
2019-02-14T16:52:24.594Z,54.60
2019-02-14T16:55:28.682Z,51.97
2019-02-14T16:58:32.315Z,50.03
2019-02-14T17:01:36.124Z,48.63
2019-02-14T17:04:39.947Z,47.77
2019-02-14T17:07:43.488Z,46.13
2019-02-14T17:10:47.321Z,46.57
2019-02-14T17:13:50.860Z,44.83
2019-02-14T17:16:54.405Z,43.30
2019-02-14T17:19:57.973Z,42.60
2019-02-14T17:23:01.501Z,39.43
2019-02-14T17:26:05.048Z,39.53
2019-02-14T17:29:08.826Z,40.60
2019-02-14T17:32:12.377Z,38.67
2019-02-14T17:35:16.487Z,37.37
2019-02-14T17:38:20.025Z,36.47
2019-02-14T17:41:23.566Z,35.80
2019-02-14T17:44:27.962Z,34.67
2019-02-14T17:47:31.848Z,33.67
2019-02-14T17:50:35.654Z,33.23
2019-02-14T17:53:39.448Z,33.10
2019-02-14T17:56:43.324Z,31.80
2019-02-14T17:59:47.204Z,30.27
2019-02-14T18:02:50.994Z,30.07
2019-02-14T18:05:54.801Z,30.77
2019-02-14T18:08:58.335Z,28.47
2019-02-14T18:12:02.172Z,29.33
2019-02-14T18:15:07.799Z,28.30
2019-02-14T18:18:11.657Z,28.67
2019-02-14T18:21:15.196Z,23.80
2019-02-14T18:24:18.724Z,27.73
2019-02-14T18:27:22.267Z,26.47
2019-02-14T18:30:26.070Z,27.43
2019-02-14T18:33:29.619Z,24.50
2019-02-14T18:36:33.774Z,25.73
2019-02-14T18:39:37.308Z,24.47
2019-02-14T18:42:41.924Z,24.93
2019-02-14T18:45:45.731Z,22.90
2019-02-14T18:48:49.578Z,22.70
2019-02-14T18:51:53.474Z,24.50
2019-02-14T18:54:56.977Z,23.53
2019-02-14T18:58:00.522Z,22.67
2019-02-14T19:01:04.066Z,21.27
2019-02-14T19:04:07.611Z,21.73
2019-02-14T19:07:11.160Z,21.10
2019-02-14T19:10:14.747Z,20.33
2019-02-14T19:13:18.961Z,21.13
2019-02-14T19:16:23.208Z,19.63
2019-02-14T19:19:26.747Z,19.10
2019-02-14T19:22:30.276Z,19.57
2019-02-14T19:25:33.828Z,18.23
2019-02-14T19:28:37.371Z,17.87
2019-02-14T19:31:40.947Z,18.93
2019-02-14T19:34:44.504Z,18.27
2019-02-14T19:37:48.038Z,17.87
2019-02-14T19:40:51.579Z,17.17
2019-02-14T19:43:55.717Z,18.20
2019-02-14T19:46:59.869Z,17.80
2019-02-14T19:50:03.529Z,16.70
2019-02-14T19:53:07.687Z,16.33
2019-02-14T19:56:11.516Z,16.60
2019-02-14T19:59:15.426Z,16.17
2019-02-14T20:02:19.587Z,15.33
2019-02-14T20:05:23.138Z,15.47
2019-02-14T20:08:27.007Z,15.30
2019-02-14T20:11:37.015Z,15.27
2019-02-14T20:14:35.820Z,13.93
2019-02-14T20:17:39.669Z,14.43
2019-02-14T20:20:43.525Z,14.23
2019-02-14T20:23:47.724Z,13.97
2019-02-14T20:26:51.531Z,14.50
2019-02-14T20:29:55.345Z,13.73
2019-02-14T20:33:04.872Z,13.50
2019-02-14T20:36:04.700Z,13.50
2019-02-14T20:39:08.243Z,13.77
2019-02-14T20:42:11.786Z,12.97
2019-02-14T20:45:15.465Z,13.00
2019-02-14T20:48:19.352Z,12.43
2019-02-14T20:51:22.876Z,12.57
2019-02-14T20:54:26.758Z,11.67
2019-02-14T20:57:30.304Z,11.83
2019-02-14T21:00:36.552Z,12.47
2019-02-14T21:03:40.744Z,11.93
2019-02-14T21:06:44.609Z,11.63
2019-02-14T21:09:48.454Z,10.90
2019-02-14T21:12:52.000Z,11.23
2019-02-14T21:15:55.952Z,10.83
2019-02-14T21:18:59.494Z,10.73
2019-02-14T21:22:03.035Z,11.17
2019-02-14T21:25:06.620Z,10.67
2019-02-14T21:28:10.454Z,10.60
2019-02-14T21:31:14.014Z,10.40
2019-02-14T21:34:17.547Z,10.03
2019-02-14T21:37:21.419Z,10.27
2019-02-14T21:40:25.210Z,9.77
2019-02-14T21:43:28.754Z,10.33
2019-02-14T21:46:32.891Z,9.37
2019-02-14T21:49:36.433Z,9.17
2019-02-14T21:52:39.967Z,9.70
2019-02-14T21:55:43.584Z,9.77
2019-02-14T21:58:47.428Z,8.63
2019-02-14T22:01:50.976Z,8.17
2019-02-14T22:04:54.518Z,8.63
2019-02-14T22:07:58.051Z,8.53
2019-02-14T22:11:01.878Z,8.27
2019-02-14T22:14:05.873Z,8.43
2019-02-14T22:17:09.516Z,8.83
2019-02-14T22:20:13.192Z,7.60
2019-02-14T22:23:16.731Z,8.33
2019-02-14T22:26:20.278Z,7.57
2019-02-14T22:29:24.636Z,7.73
2019-02-14T22:32:28.644Z,7.20
2019-02-14T22:35:32.178Z,6.97
2019-02-14T22:38:35.733Z,7.23
2019-02-14T22:41:39.261Z,9.43
2019-02-14T22:44:42.817Z,11.20
2019-02-14T22:47:46.438Z,159.50
2019-02-14T22:50:50.341Z,16.80
2019-02-14T22:53:54.179Z,26.67
2019-02-14T22:56:58.187Z,28.23
2019-02-14T23:00:01.745Z,26.33
2019-02-14T23:03:06.468Z,25.30
2019-02-14T23:06:10.079Z,25.40
2019-02-14T23:09:13.696Z,25.70
2019-02-14T23:12:17.234Z,25.60
2019-02-14T23:15:21.026Z,22.97
2019-02-14T23:18:24.629Z,21.43
2019-02-14T23:21:28.176Z,16.93
2019-02-14T23:24:31.710Z,18.20
2019-02-14T23:27:35.252Z,16.23
2019-02-14T23:30:39.066Z,15.77
2019-02-14T23:33:42.617Z,15.00
2019-02-14T23:36:46.160Z,15.10
2019-02-14T23:39:50.044Z,14.90
2019-02-14T23:42:53.840Z,14.30
2019-02-14T23:45:57.392Z,14.17
2019-02-14T23:49:00.930Z,14.10
2019-02-14T23:52:04.705Z,14.10
2019-02-14T23:55:08.459Z,13.40
2019-02-14T23:58:12.320Z,12.87
